Time;durP1;ratioP1;P1;durP2;ratioP2;P2;SDS_P1;SDS_P2;PMS_P1;PMS_P2;Temp;Humidity;BMP_temperature;BMP_pressure;BME280_temperature;BME280_humidity;BME280_pressure;Samples;Min_cycle;Max_cycle;Signal;HPM_P1;HPM_P2
2021/06/04 00:00:47;;;;;;;49.20;24.52;;;;;;;16.24;73.94;102281.50;5016992;28;20138;-72
2021/06/04 00:03:19;;;;;;;58.92;26.02;;;;;;;16.16;73.96;102283.59;5020703;28;20108;-72
2021/06/04 00:05:50;;;;;;;52.10;24.35;;;;;;;16.11;73.76;102290.94;5016244;28;20535;-73
2021/06/04 00:08:19;;;;;;;48.40;23.90;;;;;;;16.09;73.78;102288.31;5020781;28;20064;-72
2021/06/04 00:10:49;;;;;;;52.10;22.88;;;;;;;16.01;74.35;102296.59;5017994;28;20060;-73
2021/06/04 00:13:21;;;;;;;56.22;25.15;;;;;;;15.95;75.00;102293.22;5020814;28;20061;-73
2021/06/04 00:15:52;;;;;;;49.30;23.70;;;;;;;15.99;75.22;102300.28;5017372;28;20066;-72
2021/06/04 00:18:20;;;;;;;49.42;23.15;;;;;;;16.02;74.21;102298.38;5018262;28;20065;-73
2021/06/04 00:20:47;;;;;;;56.45;25.60;;;;;;;15.92;74.83;102298.69;5023812;28;20057;-72
2021/06/04 00:23:14;;;;;;;47.03;23.45;;;;;;;15.91;75.08;102287.06;5012720;28;20352;-73
2021/06/04 00:25:42;;;;;;;50.22;23.23;;;;;;;15.84;74.61;102289.06;5022189;28;20157;-73
2021/06/04 00:28:09;;;;;;;47.17;23.30;;;;;;;15.90;74.93;102295.19;5017218;28;20096;-73
2021/06/04 00:30:37;;;;;;;46.50;21.92;;;;;;;15.93;75.23;102292.41;5021856;28;20069;-74
2021/06/04 00:33:06;;;;;;;48.45;22.30;;;;;;;15.85;74.82;102290.84;5020109;28;20077;-73
2021/06/04 00:35:35;;;;;;;39.90;21.17;;;;;;;15.82;74.24;102295.44;5020135;28;20069;-73
2021/06/04 00:38:04;;;;;;;46.17;22.33;;;;;;;15.78;74.48;102288.38;5020252;28;20476;-73
2021/06/04 00:40:36;;;;;;;46.58;23.15;;;;;;;15.77;74.91;102290.19;5018272;28;20435;-73
2021/06/04 00:43:04;;;;;;;42.78;21.30;;;;;;;15.80;74.19;102297.25;5016978;28;20053;-71
2021/06/04 00:45:35;;;;;;;45.10;21.85;;;;;;;15.79;73.57;102306.28;5017982;28;20119;-72
2021/06/04 00:48:05;;;;;;;37.00;17.73;;;;;;;15.80;74.37;102298.16;5016679;28;20554;-73
2021/06/04 00:50:36;;;;;;;38.45;19.63;;;;;;;15.75;73.63;102302.81;5020809;28;20061;-73
2021/06/04 00:53:03;;;;;;;37.08;18.10;;;;;;;15.77;73.56;102300.09;5013302;28;20058;-73
2021/06/04 00:55:32;;;;;;;33.53;17.23;;;;;;;15.74;72.95;102292.06;5022616;28;20139;-72
2021/06/04 00:58:00;;;;;;;34.13;16.92;;;;;;;15.67;72.76;102292.22;5016003;28;20538;-73
2021/06/04 01:00:32;;;;;;;37.17;17.85;;;;;;;15.63;72.47;102289.69;5020898;28;20113;-73
2021/06/04 01:02:59;;;;;;;34.80;17.63;;;;;;;15.62;72.37;102287.94;5015629;28;20062;-72
2021/06/04 01:05:32;;;;;;;38.20;16.40;;;;;;;15.55;72.16;102284.53;5021822;28;20144;-73
2021/06/04 01:08:14;;;;;;;32.85;16.45;;;;;;;15.56;73.15;102291.69;5016510;28;20080;-72
2021/06/04 01:10:56;;;;;;;35.25;18.17;;;;;;;15.55;73.01;102286.38;5018346;28;20064;-73
2021/06/04 01:13:29;;;;;;;40.28;18.60;;;;;;;15.42;73.42;102288.53;5015598;28;22633;-73
2021/06/04 01:16:06;;;;;;;40.13;18.67;;;;;;;15.43;73.77;102287.59;5016282;28;20061;-73
2021/06/04 01:18:47;;;;;;;34.25;17.00;;;;;;;15.38;73.78;102285.03;5017550;28;20073;-74
2021/06/04 01:21:22;;;;;;;39.08;19.10;;;;;;;15.30;74.57;102276.31;5017582;28;20061;-73
2021/06/04 01:23:59;;;;;;;37.42;18.83;;;;;;;15.32;73.70;102274.44;5018587;28;20273;-73
2021/06/04 01:26:32;;;;;;;38.35;18.88;;;;;;;15.32;74.31;102275.34;4997580;28;20069;-71
2021/06/04 01:29:04;;;;;;;41.78;19.10;;;;;;;15.32;74.57;102282.53;5019267;28;20061;-74
2021/06/04 01:31:35;;;;;;;46.85;20.23;;;;;;;15.27;74.97;102281.78;5020125;28;20089;-73
2021/06/04 01:34:06;;;;;;;41.30;20.58;;;;;;;15.31;75.38;102281.66;5017489;28;20064;-76
2021/06/04 01:36:39;;;;;;;42.92;20.27;;;;;;;15.29;75.04;102286.19;5023023;28;20071;-76
2021/06/04 01:39:10;;;;;;;42.03;22.48;;;;;;;15.29;75.82;102275.44;5020178;28;20217;-77
2021/06/04 01:41:41;;;;;;;40.90;18.33;;;;;;;15.28;75.10;102272.78;5022594;28;20132;-77
2021/06/04 01:44:15;;;;;;;40.45;18.73;;;;;;;15.27;75.18;102271.00;5021861;28;20152;-77
2021/06/04 01:46:47;;;;;;;40.78;19.17;;;;;;;15.25;75.71;102276.44;5019889;28;20095;-76
2021/06/04 01:49:18;;;;;;;45.65;22.00;;;;;;;15.20;76.02;102269.44;5022658;28;20061;-77
2021/06/04 01:51:48;;;;;;;46.15;20.90;;;;;;;15.20;76.16;102267.63;5016320;28;20061;-77
2021/06/04 01:54:21;;;;;;;44.15;21.17;;;;;;;15.15;76.84;102269.56;5019443;28;20124;-76
2021/06/04 01:56:54;;;;;;;43.25;20.77;;;;;;;15.10;76.91;102272.41;5018449;28;20112;-79
2021/06/04 01:59:25;;;;;;;50.08;21.90;;;;;;;15.05;77.34;102276.13;5024481;28;20061;-78
2021/06/04 02:01:53;;;;;;;53.33;24.40;;;;;;;15.02;77.68;102268.19;5023044;28;20355;-78
2021/06/04 02:04:24;;;;;;;50.58;24.63;;;;;;;15.00;77.59;102260.16;5025797;28;20482;-75
2021/06/04 02:06:52;;;;;;;58.20;25.60;;;;;;;14.96;78.30;102260.28;5025733;28;20061;-76
2021/06/04 02:09:22;;;;;;;56.88;25.83;;;;;;;14.89;78.93;102259.56;5025397;28;20061;-76
2021/06/04 02:11:52;;;;;;;58.35;25.25;;;;;;;14.94;78.53;102266.56;5021333;28;20061;-77
2021/06/04 02:14:26;;;;;;;54.55;24.58;;;;;;;14.96;78.62;102277.25;5023051;28;20488;-78
2021/06/04 02:17:13;;;;;;;62.10;25.52;;;;;;;14.97;78.71;102272.78;5021518;28;20065;-78
2021/06/04 02:19:49;;;;;;;61.38;26.70;;;;;;;14.90;78.75;102272.09;5023979;28;20072;-77
2021/06/04 02:22:25;;;;;;;57.58;25.02;;;;;;;14.93;78.72;102283.63;5021548;28;20567;-76
2021/06/04 02:25:01;;;;;;;62.17;25.58;;;;;;;14.93;78.37;102291.69;5023169;28;20057;-76
2021/06/04 02:27:33;;;;;;;63.45;26.92;;;;;;;14.91;79.07;102287.25;5023097;28;20116;-78
2021/06/04 02:30:12;;;;;;;59.50;27.03;;;;;;;14.87;79.58;102286.47;5022108;28;20066;-76
2021/06/04 02:32:43;;;;;;;58.83;25.88;;;;;;;14.84;80.06;102288.34;5014756;28;20100;-79
2021/06/04 02:35:16;;;;;;;61.00;26.67;;;;;;;14.86;79.76;102284.69;5023113;28;20279;-72
2021/06/04 02:37:47;;;;;;;67.95;29.30;;;;;;;14.82;79.92;102279.47;5017157;28;20061;-73
2021/06/04 02:40:18;;;;;;;67.25;28.73;;;;;;;14.83;80.27;102274.06;5004513;28;20066;-72
2021/06/04 02:42:51;;;;;;;62.80;27.70;;;;;;;14.87;79.62;102280.22;5016332;28;20338;-73
2021/06/04 02:45:22;;;;;;;69.18;28.92;;;;;;;14.85;79.41;102284.75;5023371;28;20057;-72
2021/06/04 02:47:53;;;;;;;68.97;27.73;;;;;;;14.77;80.34;102282.25;5017983;28;20084;-73
2021/06/04 02:50:28;;;;;;;71.18;28.33;;;;;;;14.76;79.66;102285.88;5000942;28;20057;-72
2021/06/04 02:53:14;;;;;;;66.93;29.15;;;;;;;14.82;80.30;102290.22;5018711;28;20072;-73
2021/06/04 02:55:56;;;;;;;73.38;30.17;;;;;;;14.78;80.18;102296.56;5023295;28;20057;-73
2021/06/04 02:58:25;;;;;;;67.07;29.33;;;;;;;14.83;80.91;102297.34;5016688;28;20061;-73
2021/06/04 03:00:53;;;;;;;71.47;29.98;;;;;;;14.74;80.81;102288.63;5021580;28;20486;-73
2021/06/04 03:03:20;;;;;;;70.57;31.42;;;;;;;14.72;81.35;102284.19;5021287;28;20069;-74
2021/06/04 03:05:48;;;;;;;70.18;30.58;;;;;;;14.72;81.53;102282.38;5024244;28;20069;-77
2021/06/04 03:08:16;;;;;;;63.85;28.45;;;;;;;14.77;80.95;102274.22;5016558;28;20063;-72
2021/06/04 03:10:46;;;;;;;68.18;29.27;;;;;;;14.79;81.48;102274.16;5021066;28;20061;-73
2021/06/04 03:13:17;;;;;;;63.28;28.38;;;;;;;14.80;81.11;102268.75;5018868;28;20053;-74
2021/06/04 03:15:48;;;;;;;67.13;27.67;;;;;;;14.84;81.11;102272.22;5023240;28;20160;-74
2021/06/04 03:18:19;;;;;;;67.05;29.17;;;;;;;14.84;80.67;102266.84;5017092;28;20464;-73
2021/06/04 03:20:48;;;;;;;66.25;31.05;;;;;;;14.84;80.78;102265.03;5019975;28;20133;-73
2021/06/04 03:23:18;;;;;;;67.28;28.42;;;;;;;14.86;80.81;102260.50;5019867;28;20061;-75
2021/06/04 03:25:47;;;;;;;69.25;29.63;;;;;;;14.87;80.96;102266.78;5023703;28;20370;-74
2021/06/04 03:28:19;;;;;;;72.82;30.48;;;;;;;14.93;81.66;102269.28;5020468;28;20049;-73
2021/06/04 03:30:48;;;;;;;57.92;27.88;;;;;;;14.93;80.78;102261.22;5022189;28;20057;-74
2021/06/04 03:33:20;;;;;;;78.43;31.65;;;;;;;14.93;81.32;102272.88;5019051;28;20063;-73
2021/06/04 03:35:49;;;;;;;65.93;29.90;;;;;;;14.93;81.30;102272.88;5018048;28;20141;-74
2021/06/04 03:38:17;;;;;;;71.13;27.92;;;;;;;14.97;81.06;102275.47;5025313;28;20100;-73
2021/06/04 03:40:45;;;;;;;73.65;30.67;;;;;;;14.96;81.22;102281.78;5023906;28;20064;-73
2021/06/04 03:43:16;;;;;;;72.05;31.13;;;;;;;14.94;80.66;102280.00;5023693;28;20176;-73
2021/06/04 03:45:44;;;;;;;76.40;33.35;;;;;;;14.84;81.48;102274.94;5020000;28;20065;-77
2021/06/04 03:48:17;;;;;;;76.68;33.42;;;;;;;14.86;81.55;102278.44;5021268;28;20061;-76
2021/06/04 03:50:45;;;;;;;78.35;33.00;;;;;;;14.93;81.37;102283.63;5017922;28;20145;-80
2021/06/04 03:53:14;;;;;;;74.05;30.90;;;;;;;15.00;81.11;102283.44;5019836;28;20061;-78
2021/06/04 03:55:42;;;;;;;73.80;30.02;;;;;;;15.03;81.31;102286.03;5002014;28;20156;-76
2021/06/04 03:58:11;;;;;;;75.53;31.08;;;;;;;15.00;81.51;102289.72;5024853;28;20460;-78
2021/06/04 04:00:40;;;;;;;72.75;30.70;;;;;;;15.05;81.29;102286.88;5017006;28;20063;-81
2021/06/04 04:03:08;;;;;;;65.90;30.20;;;;;;;15.08;80.85;102292.19;5020901;28;20468;-77
2021/06/04 04:05:39;;;;;;;81.18;32.10;;;;;;;15.06;81.25;102289.53;5018716;28;20112;-79
2021/06/04 04:08:09;;;;;;;71.65;30.98;;;;;;;15.12;81.12;102283.13;5020449;28;20388;-77
2021/06/04 04:10:36;;;;;;;69.22;29.98;;;;;;;15.11;80.74;102274.16;4999974;28;21729;-77
2021/06/04 04:13:04;;;;;;;70.18;30.05;;;;;;;15.19;81.04;102281.09;5022179;28;20061;-76
2021/06/04 04:15:32;;;;;;;67.45;29.15;;;;;;;15.19;80.93;102279.31;5019780;28;20148;-77
2021/06/04 04:18:02;;;;;;;71.88;30.63;;;;;;;15.24;80.34;102288.13;5018142;28;20049;-78
2021/06/04 04:20:33;;;;;;;77.38;32.30;;;;;;;15.26;79.90;102290.78;5018068;28;20471;-77
2021/06/04 04:23:03;;;;;;;72.28;30.70;;;;;;;15.24;80.82;102292.63;5020080;28;20061;-76
2021/06/04 04:25:34;;;;;;;76.70;33.00;;;;;;;15.31;80.70;102292.41;5022585;28;20063;-77
2021/06/04 04:28:06;;;;;;;80.47;33.25;;;;;;;15.31;80.49;102292.41;5022861;28;20116;-75
2021/06/04 04:30:34;;;;;;;76.32;31.13;;;;;;;15.40;80.50;102302.00;5019256;28;20445;-76
2021/06/04 04:33:02;;;;;;;71.47;32.92;;;;;;;15.42;79.49;102305.53;5016943;28;20138;-77
2021/06/04 04:35:33;;;;;;;78.47;33.58;;;;;;;15.59;79.89;102304.16;5019330;28;20116;-76
2021/06/04 04:38:03;;;;;;;75.85;31.50;;;;;;;15.75;79.54;102308.19;5018951;28;20057;-76
2021/06/04 04:40:34;;;;;;;79.03;35.47;;;;;;;15.94;79.54;102300.44;5022777;28;20100;-73
2021/06/04 04:43:02;;;;;;;69.32;30.35;;;;;;;16.16;79.05;102302.44;5016483;28;20061;-72
2021/06/04 04:45:31;;;;;;;74.53;31.50;;;;;;;16.38;78.16;102297.25;5021071;28;20523;-72
2021/06/04 04:47:58;;;;;;;67.95;30.58;;;;;;;16.56;77.60;102309.19;5015345;28;20065;-76
2021/06/04 04:50:27;;;;;;;67.50;31.33;;;;;;;16.67;77.54;102301.63;5021143;28;20057;-76
2021/06/04 04:52:55;;;;;;;65.95;30.70;;;;;;;16.91;76.75;102299.03;5016819;28;20065;-76
2021/06/04 04:55:26;;;;;;;66.90;28.20;;;;;;;17.14;75.74;102292.81;5019775;28;20444;-77
2021/06/04 04:57:54;;;;;;;63.03;31.63;;;;;;;17.15;75.46;102289.19;5018268;28;20065;-73
2021/06/04 05:00:25;;;;;;;70.90;31.02;;;;;;;17.48;74.47;102288.84;5018204;28;20061;-73
2021/06/04 05:02:53;;;;;;;59.25;28.58;;;;;;;17.71;73.29;102291.53;5018796;28;20061;-74
2021/06/04 05:05:26;;;;;;;56.83;27.75;;;;;;;18.03;72.25;102300.22;5018474;28;20050;-72
2021/06/04 05:07:53;;;;;;;55.38;27.33;;;;;;;18.33;71.66;102290.91;5017828;28;20061;-74
2021/06/04 05:10:21;;;;;;;64.00;28.85;;;;;;;18.63;70.77;102296.84;5019933;28;20188;-73
2021/06/04 05:12:50;;;;;;;60.45;27.65;;;;;;;18.69;69.50;102301.97;5019743;28;20129;-73
2021/06/04 05:15:21;;;;;;;52.03;25.98;;;;;;;19.04;69.95;102295.06;5023767;28;20076;-72
2021/06/04 05:17:49;;;;;;;51.70;24.60;;;;;;;19.08;68.99;102297.63;5016725;28;20053;-73
2021/06/04 05:20:17;;;;;;;50.65;24.98;;;;;;;18.97;69.64;102296.28;5019421;28;20092;-72
2021/06/04 05:22:45;;;;;;;56.22;26.98;;;;;;;19.38;68.84;102298.94;5016685;28;20075;-72
2021/06/04 05:25:15;;;;;;;57.80;25.48;;;;;;;19.72;67.16;102305.47;5015864;28;20157;-73
2021/06/04 05:27:44;;;;;;;56.63;26.80;;;;;;;19.95;65.73;102309.84;5015405;28;20333;-72
2021/06/04 05:30:17;;;;;;;54.33;25.20;;;;;;;20.19;65.79;102309.56;5015308;28;20062;-71
2021/06/04 05:32:45;;;;;;;53.20;25.67;;;;;;;19.90;66.21;102306.47;5025214;28;20148;-76
2021/06/04 05:35:13;;;;;;;50.35;24.63;;;;;;;19.54;67.49;102306.34;5018122;28;20057;-77
2021/06/04 05:37:41;;;;;;;47.80;26.23;;;;;;;19.50;67.61;102305.59;5023054;28;20148;-78
2021/06/04 05:40:11;;;;;;;48.65;24.02;;;;;;;19.40;68.15;102315.09;5019538;28;20135;-77
2021/06/04 05:42:39;;;;;;;60.67;27.58;;;;;;;19.16;68.40;102312.56;5023677;28;20061;-79
2021/06/04 05:45:11;;;;;;;47.88;23.88;;;;;;;19.41;68.38;102312.34;4996028;28;20077;-78
2021/06/04 05:47:40;;;;;;;56.00;26.48;;;;;;;18.83;68.90;102315.81;5023413;28;20335;-76
2021/06/04 05:50:13;;;;;;;49.60;25.05;;;;;;;19.19;68.63;102314.28;5016500;28;20148;-77
2021/06/04 05:52:42;;;;;;;47.17;21.23;;;;;;;19.39;68.22;102306.13;5018203;28;20144;-75
2021/06/04 05:55:11;;;;;;;48.67;24.85;;;;;;;19.32;67.41;102312.72;5019571;28;20352;-75
2021/06/04 05:57:39;;;;;;;55.15;26.00;;;;;;;19.25;67.59;102305.84;5020486;28;20485;-75
2021/06/04 06:00:11;;;;;;;54.40;25.33;;;;;;;19.14;66.86;102295.53;5022727;28;20111;-74
2021/06/04 06:02:40;;;;;;;49.23;23.27;;;;;;;19.37;67.10;102299.00;5018505;28;20054;-74
2021/06/04 06:05:09;;;;;;;53.08;26.95;;;;;;;19.36;66.07;102303.53;5021932;28;20089;-75
2021/06/04 06:07:37;;;;;;;52.47;26.33;;;;;;;19.30;66.39;102305.66;5019779;28;20062;-75
2021/06/04 06:10:07;;;;;;;54.60;25.45;;;;;;;19.46;65.70;102314.84;5021982;28;20339;-75
2021/06/04 06:12:34;;;;;;;54.38;25.63;;;;;;;20.27;64.06;102314.63;5005260;28;20351;-73
2021/06/04 06:15:05;;;;;;;58.50;26.15;;;;;;;20.14;63.29;102312.53;5019527;28;20452;-75
2021/06/04 06:17:32;;;;;;;52.97;24.52;;;;;;;20.12;62.68;102311.69;5018209;28;20168;-75
2021/06/04 06:20:01;;;;;;;54.80;26.38;;;;;;;20.21;62.86;102313.09;5020901;28;20331;-74
2021/06/04 06:22:28;;;;;;;53.92;25.40;;;;;;;20.57;62.15;102306.78;5019929;28;20148;-77
2021/06/04 06:24:56;;;;;;;62.30;27.38;;;;;;;20.73;61.75;102312.31;5024814;28;20057;-75
2021/06/04 06:27:23;;;;;;;58.10;27.75;;;;;;;21.80;59.57;102319.25;5020074;28;20148;-75
2021/06/04 06:29:50;;;;;;;52.75;26.83;;;;;;;22.22;58.12;102322.31;5000680;28;20130;-74
2021/06/04 06:32:20;;;;;;;58.42;26.33;;;;;;;22.25;57.90;102319.41;5018252;28;20093;-74
2021/06/04 06:34:48;;;;;;;49.15;25.13;;;;;;;21.47;58.30;102319.28;5025051;28;20359;-74
2021/06/04 06:37:19;;;;;;;50.72;24.85;;;;;;;21.61;59.35;102319.41;5004495;28;20065;-74
2021/06/04 06:39:46;;;;;;;45.63;23.92;;;;;;;22.04;58.43;102317.94;5020972;28;20163;-74
2021/06/04 06:42:13;;;;;;;46.33;24.90;;;;;;;22.41;57.42;102323.97;5021543;28;20269;-74
2021/06/04 06:44:41;;;;;;;52.17;26.17;;;;;;;22.93;54.99;102327.19;5021114;28;20339;-75
2021/06/04 06:47:08;;;;;;;51.50;24.20;;;;;;;23.26;53.31;102317.06;5023146;28;20065;-74
2021/06/04 06:49:36;;;;;;;45.35;23.38;;;;;;;23.43;53.26;102325.03;5024811;28;20353;-75
2021/06/04 06:52:03;;;;;;;44.42;22.17;;;;;;;23.84;53.44;102324.25;5027211;28;20065;-76
2021/06/04 06:54:34;;;;;;;42.55;22.65;;;;;;;23.86;51.51;102327.75;5016340;28;20460;-76
2021/06/04 06:57:04;;;;;;;42.53;21.20;;;;;;;24.40;51.83;102321.47;5023037;28;20147;-75
2021/06/04 06:59:31;;;;;;;52.80;23.83;;;;;;;24.29;51.19;102312.25;5021432;28;20053;-74
2021/06/04 07:02:01;;;;;;;41.67;21.88;;;;;;;24.67;49.68;102309.72;5021231;28;20737;-76
2021/06/04 07:04:30;;;;;;;42.33;22.65;;;;;;;24.69;48.99;102312.31;5019086;28;20066;-74
2021/06/04 07:06:58;;;;;;;42.63;22.35;;;;;;;24.89;48.23;102317.28;5020975;28;20057;-73
2021/06/04 07:09:26;;;;;;;42.35;22.60;;;;;;;24.64;48.75;102317.19;5019626;28;20058;-74
2021/06/04 07:11:56;;;;;;;43.28;21.30;;;;;;;25.26;48.95;102320.16;5021104;28;20057;-76
2021/06/04 07:14:28;;;;;;;39.17;20.58;;;;;;;25.35;47.80;102324.97;5018150;28;20436;-75
2021/06/04 07:16:56;;;;;;;38.33;21.17;;;;;;;25.52;47.07;102325.59;5026026;28;20061;-74
2021/06/04 07:19:24;;;;;;;33.22;18.90;;;;;;;25.90;47.01;102330.16;5018303;28;20084;-74
2021/06/04 07:21:53;;;;;;;42.47;20.52;;;;;;;25.58;46.70;102338.84;5021486;28;20143;-74
2021/06/04 07:24:22;;;;;;;34.95;19.90;;;;;;;25.71;46.52;102334.22;5016820;28;20068;-75
2021/06/04 07:26:54;;;;;;;40.25;20.92;;;;;;;26.06;45.15;102336.22;5022330;28;20372;-75
2021/06/04 07:29:24;;;;;;;38.30;19.77;;;;;;;25.87;45.48;102333.97;5018451;28;20452;-74
2021/06/04 07:31:55;;;;;;;36.72;19.95;;;;;;;26.33;44.24;102334.28;5021728;28;20061;-75
2021/06/04 07:34:24;;;;;;;32.08;18.60;;;;;;;25.98;44.12;102341.38;5020627;28;20091;-75
2021/06/04 07:36:54;;;;;;;35.15;18.70;;;;;;;25.90;45.51;102341.94;5021555;28;20063;-74
2021/06/04 07:39:26;;;;;;;33.65;17.30;;;;;;;26.37;44.55;102341.25;5018978;28;20057;-75
2021/06/04 07:41:54;;;;;;;34.95;19.02;;;;;;;26.28;44.65;102338.22;5023989;28;20151;-74
2021/06/04 07:44:24;;;;;;;40.42;19.75;;;;;;;26.79;43.79;102336.25;5020134;28;20136;-74
2021/06/04 07:46:53;;;;;;;34.17;20.17;;;;;;;26.85;43.61;102341.25;5021058;28;20448;-75
2021/06/04 07:49:23;;;;;;;31.75;18.42;;;;;;;27.63;42.86;102333.31;5019979;28;20061;-76
2021/06/04 07:51:55;;;;;;;32.20;18.30;;;;;;;27.28;42.74;102329.69;5019706;28;20080;-75
2021/06/04 07:54:23;;;;;;;28.75;16.80;;;;;;;27.36;41.32;102334.53;5016958;28;20061;-74
2021/06/04 07:56:51;;;;;;;31.25;17.42;;;;;;;27.34;42.92;102331.06;5019821;28;20065;-75
2021/06/04 07:59:18;;;;;;;32.38;17.80;;;;;;;27.54;42.22;102324.81;5021024;28;20768;-75
2021/06/04 08:01:48;;;;;;;30.45;17.60;;;;;;;27.72;41.41;102332.53;5016846;28;20057;-77
2021/06/04 08:04:15;;;;;;;24.67;14.07;;;;;;;27.87;40.91;102330.41;5019973;28;20499;-76
2021/06/04 08:06:43;;;;;;;35.00;19.20;;;;;;;27.08;41.70;102338.59;5017137;28;20069;-76
2021/06/04 08:09:13;;;;;;;35.08;19.58;;;;;;;26.92;42.63;102334.31;5020418;28;20149;-75
2021/06/04 08:11:43;;;;;;;35.15;19.52;;;;;;;26.34;43.72;102344.22;5016975;28;20191;-75
2021/06/04 08:14:14;;;;;;;32.78;18.27;;;;;;;27.17;42.48;102333.22;5019701;28;20452;-76
2021/06/04 08:16:45;;;;;;;33.03;19.52;;;;;;;27.35;42.23;102327.31;5019082;28;20472;-75
2021/06/04 08:19:14;;;;;;;35.45;20.13;;;;;;;27.49;41.75;102323.47;5021892;28;20069;-77
2021/06/04 08:21:46;;;;;;;29.63;18.58;;;;;;;27.64;41.70;102315.88;5018133;28;20065;-76
2021/06/04 08:24:16;;;;;;;28.92;16.45;;;;;;;27.64;41.11;102321.34;5020315;28;20063;-77
2021/06/04 08:26:43;;;;;;;31.42;17.48;;;;;;;26.83;43.04;102326.81;5020162;28;20524;-78
2021/06/04 08:29:11;;;;;;;27.77;16.30;;;;;;;25.87;44.42;102328.50;5018451;28;20092;-77
2021/06/04 08:31:39;;;;;;;26.98;16.63;;;;;;;26.05;44.14;102333.59;5018940;28;20085;-76
2021/06/04 08:34:07;;;;;;;31.70;17.58;;;;;;;26.19;43.60;102336.19;5018424;28;20115;-77
2021/06/04 08:36:40;;;;;;;31.40;16.65;;;;;;;26.11;44.19;102324.09;5017913;28;20266;-77
2021/06/04 08:39:11;;;;;;;30.85;16.88;;;;;;;26.73;43.66;102323.03;5004374;28;20062;-77
2021/06/04 08:41:45;;;;;;;30.05;16.38;;;;;;;27.18;41.45;102321.28;5015770;28;20065;-77
2021/06/04 08:44:34;;;;;;;25.27;15.82;;;;;;;27.05;41.83;102323.25;5019615;28;20099;-76
2021/06/04 08:47:06;;;;;;;29.20;16.60;;;;;;;27.73;41.99;102318.72;5017746;28;20736;-77
2021/06/04 08:49:50;;;;;;;24.95;14.52;;;;;;;28.37;39.86;102328.09;5019556;28;20140;-78
2021/06/04 08:52:24;;;;;;;29.08;15.15;;;;;;;28.22;39.71;102337.63;5018710;28;20061;-76
2021/06/04 08:54:59;;;;;;;31.40;18.42;;;;;;;28.17;39.88;102339.88;5003744;28;20452;-77
2021/06/04 08:57:44;;;;;;;28.73;17.40;;;;;;;27.79;41.27;102335.66;5017955;28;20147;-75
2021/06/04 09:00:15;;;;;;;31.13;17.30;;;;;;;28.08;40.13;102334.16;5004139;28;20349;-78
2021/06/04 09:02:48;;;;;;;26.83;16.40;;;;;;;27.85;40.24;102336.03;5017983;28;20057;-77
2021/06/04 09:05:19;;;;;;;32.28;18.35;;;;;;;26.63;41.82;102342.91;5020634;28;20144;-76
2021/06/04 09:07:50;;;;;;;27.50;15.50;;;;;;;27.69;42.17;102338.31;5019263;28;20195;-77
2021/06/04 09:10:29;;;;;;;27.95;15.02;;;;;;;28.54;40.40;102342.22;5025564;28;20061;-77
2021/06/04 09:13:03;;;;;;;25.05;16.08;;;;;;;27.92;40.10;102344.66;5018025;28;20058;-77
2021/06/04 09:15:34;;;;;;;28.35;16.02;;;;;;;28.48;39.72;102338.16;5026858;28;20087;-76
2021/06/04 09:18:07;;;;;;;28.67;17.60;;;;;;;27.73;40.24;102339.78;5021227;28;20064;-77
2021/06/04 09:20:44;;;;;;;33.15;17.45;;;;;;;27.10;41.72;102342.06;5023285;28;20057;-77
2021/06/04 09:23:16;;;;;;;27.95;17.05;;;;;;;27.05;42.45;102344.28;5022832;28;20061;-77
2021/06/04 09:25:43;;;;;;;29.17;16.17;;;;;;;27.45;42.33;102330.19;5023868;28;20065;-76
2021/06/04 09:28:24;;;;;;;31.33;17.05;;;;;;;27.82;41.24;102329.91;5025354;28;20148;-76
2021/06/04 09:30:55;;;;;;;33.08;18.60;;;;;;;26.35;43.21;102335.91;5023121;28;20463;-75
2021/06/04 09:33:43;;;;;;;33.22;18.90;;;;;;;26.64;43.37;102341.91;5024989;28;20136;-74
2021/06/04 09:36:14;;;;;;;30.98;19.58;;;;;;;27.19;42.23;102335.84;5021811;28;20058;-75
2021/06/04 09:38:46;;;;;;;31.17;17.00;;;;;;;27.98;41.26;102340.56;5021911;28;20464;-75
2021/06/04 09:41:41;;;;;;;30.27;17.50;;;;;;;27.58;41.78;102337.31;5021385;28;20071;-76
2021/06/04 09:44:27;;;;;;;38.53;21.92;;;;;;;26.43;44.09;102349.03;5021937;28;20059;-75
2021/06/04 09:47:05;;;;;;;33.95;18.50;;;;;;;26.25;45.35;102332.13;5007462;28;20527;-75
2021/06/04 09:49:44;;;;;;;31.95;17.00;;;;;;;26.64;45.94;102336.44;5020413;28;20065;-76
2021/06/04 09:52:22;;;;;;;35.75;19.25;;;;;;;27.17;44.36;102332.38;5023295;28;20123;-76
2021/06/04 09:55:08;;;;;;;37.97;21.55;;;;;;;27.52;43.12;102332.31;5018375;28;20446;-75
2021/06/04 09:57:36;;;;;;;30.65;19.45;;;;;;;27.67;41.68;102321.06;5022442;28;20631;-71
2021/06/04 10:00:15;;;;;;;31.42;20.23;;;;;;;26.86;44.36;102333.91;5019218;28;20764;-72
2021/06/04 10:02:42;;;;;;;35.92;20.13;;;;;;;26.57;44.99;102326.06;5028854;28;20384;-72
2021/06/04 10:05:15;;;;;;;30.15;18.67;;;;;;;27.21;43.73;102311.97;5022400;28;20542;-72
2021/06/04 10:07:44;;;;;;;27.90;18.33;;;;;;;26.89;45.09;102329.06;5026134;28;20061;-72
2021/06/04 10:10:23;;;;;;;33.70;18.17;;;;;;;27.55;43.69;102320.25;5018720;28;20481;-71
2021/06/04 10:12:56;;;;;;;26.95;16.25;;;;;;;27.71;43.19;102322.59;5023719;28;20444;-71
2021/06/04 10:15:28;;;;;;;30.73;17.83;;;;;;;27.93;42.79;102325.31;5018616;28;20167;-72
2021/06/04 10:18:03;;;;;;;32.45;18.30;;;;;;;28.02;42.61;102333.78;5021740;28;20499;-71
2021/06/04 10:20:35;;;;;;;28.42;18.00;;;;;;;28.01;42.32;102324.72;5023385;28;20758;-71
2021/06/04 10:23:08;;;;;;;26.10;16.70;;;;;;;28.10;42.44;102314.84;5022873;28;20550;-71
2021/06/04 10:25:45;;;;;;;29.88;18.55;;;;;;;27.37;43.67;102311.63;5026853;28;20068;-71
2021/06/04 10:28:37;;;;;;;31.35;17.80;;;;;;;27.16;43.54;102320.53;5022759;28;20057;-72
2021/06/04 10:31:25;;;;;;;32.65;19.10;;;;;;;27.45;43.68;102314.63;5020567;28;20386;-72
2021/06/04 10:34:01;;;;;;;32.88;19.38;;;;;;;27.90;43.16;102308.22;5009847;28;20591;-72
2021/06/04 10:36:33;;;;;;;35.53;21.42;;;;;;;28.05;41.99;102298.75;5020482;28;20507;-73
2021/06/04 10:39:07;;;;;;;32.53;19.15;;;;;;;28.37;41.69;102297.91;5023825;28;20069;-72
2021/06/04 10:41:45;;;;;;;30.55;18.95;;;;;;;28.36;42.15;102298.03;5018756;28;20162;-71
2021/06/04 10:44:20;;;;;;;34.08;20.48;;;;;;;28.75;40.88;102299.25;5025298;28;20061;-72
2021/06/04 10:46:54;;;;;;;33.67;20.10;;;;;;;28.25;41.83;102296.22;5019137;28;20570;-72
2021/06/04 10:49:52;;;;;;;31.15;18.85;;;;;;;27.83;42.29;102296.88;5024849;28;20065;-72
2021/06/04 10:52:29;;;;;;;32.17;19.33;;;;;;;28.28;41.33;102295.94;5010801;28;20138;-73
2021/06/04 10:55:06;;;;;;;29.10;18.60;;;;;;;28.55;41.35;102289.09;5023508;28;20057;-73
2021/06/04 10:57:42;;;;;;;33.08;19.65;;;;;;;28.57;40.76;102292.59;5018504;28;20061;-72
2021/06/04 11:00:12;;;;;;;33.20;21.20;;;;;;;28.83;39.79;102293.09;5026394;28;20068;-72
2021/06/04 11:02:48;;;;;;;29.02;18.27;;;;;;;28.99;39.72;102281.63;5022444;28;20259;-72
2021/06/04 11:05:31;;;;;;;31.70;18.95;;;;;;;29.13;40.28;102280.41;5026658;28;20088;-73
2021/06/04 11:08:08;;;;;;;34.78;20.23;;;;;;;28.63;40.13;102286.59;5022086;28;20329;-73
2021/06/04 11:10:44;;;;;;;31.35;18.98;;;;;;;28.44;40.14;102282.66;5026535;28;20103;-72
2021/06/04 11:13:30;;;;;;;35.70;18.50;;;;;;;28.95;40.22;102282.91;5023333;28;20063;-74
2021/06/04 11:16:00;;;;;;;35.78;19.17;;;;;;;28.48;39.92;102286.84;5025263;28;20107;-73
2021/06/04 11:18:38;;;;;;;28.40;18.35;;;;;;;28.76;39.59;102289.13;5022018;28;20069;-72
2021/06/04 11:21:21;;;;;;;29.67;18.08;;;;;;;28.74;39.86;102286.53;5021774;28;20066;-72
2021/06/04 11:23:53;;;;;;;28.58;17.50;;;;;;;28.43;40.76;102288.25;5022024;28;20076;-73
2021/06/04 11:26:22;;;;;;;30.83;18.13;;;;;;;28.05;40.89;102295.16;5021042;28;20182;-72
2021/06/04 11:28:58;;;;;;;28.42;16.70;;;;;;;28.60;40.70;102284.97;5019911;28;20168;-77